Aeroporto :
LOGIN :

Iscrizione | Disclaimer

   EN    FR    IT 

 










Sommario :    VFR   VFR Marginale   IFR   IFR Intensivo   IFR Molto Intensivo
Visibilità : 
Base nubi : 
>= 8 km
>= 3000ft
5 / 8 km
1000 / 3000 ft
1500m / 5 km
500 / 1000 ft
800 / 1500m
200 / 500 ft
< 800m
< 200 ft
Simboli :   Temporali  Nebbia  Neve Forte  Precipitazioni Forti  Vento > 20 kt
SIGMETs :   Varie  Temporali  Ghiacco  Turbolenza  Onda orograficha  Ceneri Vulcaniche






- Altitudine del aeroporto : 38 ft
- Codice IATA : BOH


EGHH - Bournemouth

ULTIMO METAR :
  • 041350Z 05005KT 360V090 9999 BKN020 05/02 Q1015

METARs OBSOLETI :
  • 041320Z 06005KT 340V110 9999 BKN020 05/02 Q1015
  • 041250Z 07006KT 020V110 9999 BKN018 05/02 Q1015
  • 041220Z 06010KT 010V100 9999 BKN018 05/02 Q1015
  • 041150Z 05008KT 010V080 9999 BKN021 05/02 Q1016
  • 041120Z 07008KT 9999 BKN021 04/02 Q1016

TAF TAF EGHH
Valido dal 04 a 12 ore il 04 a 21 ore UTC


041058Z 0412/0421 06008KT 9999 SCT020
PROB30
TEMPO 0412/0415 4000 BR BKN014
PROB30
TEMPO 0415/0421 7000 SHRA BKN009
ATIS : +44 1202 364 151
Met : +44 1202 364 158 (TAF)



MetMap, La meteo Aeronautica in un colpo d'occhio ! - Copyright ORBIFLY Dicembre 2007 - Disclaimer

ORBIFLY MET'MAP TEAM :

Programmazione e sviluppo : Alexandra Zaïnal
Concezione : Baudouin d'Aumeries
Supporto tecnico e logistico : Manuel Goepfert
Aiuto : Marc-Olivier Méhu
Aiuto per la traduzione : Arnaldo La Scala




FONTI E CREDITI :

   NOAA